createdAt,value
2023-03-05T00:01:33.573Z,99854.36
2023-03-05T00:04:04.347Z,99855.50
2023-03-05T00:06:33.447Z,99857.65
2023-03-05T00:09:01.598Z,99856.09
2023-03-05T00:11:30.577Z,99861.27
2023-03-05T00:13:59.891Z,99856.34
2023-03-05T00:16:29.447Z,99853.41
2023-03-05T00:18:59.308Z,99849.31
2023-03-05T00:21:30.540Z,99846.40
2023-03-05T00:24:01.713Z,99845.38
2023-03-05T00:26:31.499Z,99841.98
2023-03-05T00:28:59.913Z,99847.35
2023-03-05T00:31:30.834Z,99844.79
2023-03-05T00:34:05.438Z,99845.46
2023-03-05T00:36:33.732Z,99844.60
2023-03-05T00:39:01.747Z,99840.36
2023-03-05T00:41:29.974Z,99837.83
2023-03-05T00:43:58.173Z,99831.21
2023-03-05T00:46:27.721Z,99829.64
2023-03-05T00:48:57.251Z,99828.40
2023-03-05T00:51:26.752Z,99826.34
2023-03-05T00:53:55.596Z,99825.77
2023-03-05T00:56:23.818Z,99821.20
2023-03-05T00:58:53.457Z,99819.98
2023-03-05T01:01:22.327Z,99818.06
2023-03-05T01:03:50.889Z,99813.66
2023-03-05T01:06:19.392Z,99811.46
2023-03-05T01:08:47.432Z,99810.95
2023-03-05T01:11:15.468Z,99807.90
2023-03-05T01:13:43.490Z,99805.84
2023-03-05T01:16:11.876Z,99806.80
2023-03-05T01:18:40.672Z,99805.39
2023-03-05T01:21:09.107Z,99801.63
2023-03-05T01:23:37.684Z,99800.56
2023-03-05T01:26:06.916Z,99798.48
2023-03-05T01:28:34.851Z,99792.01
2023-03-05T01:31:07.071Z,99789.11
2023-03-05T01:33:35.192Z,99786.55
2023-03-05T01:36:07.564Z,99785.54
2023-03-05T01:38:35.637Z,99778.59
2023-03-05T01:41:03.714Z,99778.20
2023-03-05T01:43:31.782Z,99778.84
2023-03-05T01:46:24.531Z,99771.54
2023-03-05T01:48:59.329Z,99769.15
2023-03-05T01:51:30.696Z,99770.31
2023-03-05T01:54:01.028Z,99768.94
2023-03-05T01:56:31.152Z,99770.61
2023-03-05T01:59:03.848Z,99767.91
2023-03-05T02:01:38.778Z,99769.08
2023-03-05T02:04:09.591Z,99768.88
2023-03-05T02:06:39.781Z,99767.35
2023-03-05T02:09:07.781Z,99766.00
2023-03-05T02:11:36.781Z,99766.33
2023-03-05T02:14:07.323Z,99769.19
2023-03-05T02:16:38.928Z,99767.30
2023-03-05T02:19:10.928Z,99766.10
2023-03-05T02:21:45.859Z,99765.28
2023-03-05T02:24:16.766Z,99765.77
2023-03-05T02:26:46.950Z,99760.51
2023-03-05T02:29:19.536Z,99754.77
2023-03-05T02:31:47.635Z,99754.45
2023-03-05T02:34:16.156Z,99752.39
2023-03-05T02:36:44.215Z,99751.02
2023-03-05T02:39:12.926Z,99749.29
2023-03-05T02:41:40.981Z,99751.41
2023-03-05T02:44:09.551Z,99749.69
2023-03-05T02:46:37.537Z,99745.95
2023-03-05T02:49:06.007Z,99746.38
2023-03-05T02:51:34.281Z,99743.15
2023-03-05T02:54:02.660Z,99741.40
2023-03-05T02:56:31.246Z,99740.17
2023-03-05T02:59:01.666Z,99736.08
2023-03-05T03:01:30.125Z,99736.23
2023-03-05T03:03:59.569Z,99731.48
2023-03-05T03:06:27.528Z,99733.46
2023-03-05T03:08:55.614Z,99731.41
2023-03-05T03:11:23.665Z,99730.88
2023-03-05T03:13:51.732Z,99727.33
2023-03-05T03:16:20.368Z,99727.34
2023-03-05T03:18:49.150Z,99727.17
2023-03-05T03:21:20.348Z,99722.29
2023-03-05T03:23:48.555Z,99722.63
2023-03-05T03:26:17.516Z,99722.63
2023-03-05T03:28:46.109Z,99722.67
2023-03-05T03:31:15.087Z,99721.23
2023-03-05T03:33:43.268Z,99717.91
2023-03-05T03:36:11.382Z,99716.09
2023-03-05T03:38:39.655Z,99714.44
2023-03-05T03:41:08.267Z,99709.20
2023-03-05T03:43:36.900Z,99709.91
2023-03-05T03:46:08.301Z,99708.61
2023-03-05T03:48:36.611Z,99707.98
2023-03-05T03:51:06.807Z,99702.65
2023-03-05T03:53:34.922Z,99699.99
2023-03-05T03:56:03.685Z,99697.86
2023-03-05T03:58:32.608Z,99696.38
2023-03-05T04:01:00.855Z,99693.67
2023-03-05T04:03:28.881Z,99689.29
2023-03-05T04:05:56.894Z,99685.41
2023-03-05T04:08:24.964Z,99683.88
2023-03-05T04:10:52.999Z,99686.39
2023-03-05T04:13:21.129Z,99682.98
2023-03-05T04:15:50.600Z,99678.52
2023-03-05T04:18:18.790Z,99678.98
2023-03-05T04:20:46.970Z,99674.70
2023-03-05T04:23:15.162Z,99672.78
2023-03-05T04:25:43.822Z,99674.59
2023-03-05T04:28:12.818Z,99667.82
2023-03-05T04:30:40.775Z,99663.75
2023-03-05T04:33:08.854Z,99664.60
2023-03-05T04:35:37.074Z,99665.43
2023-03-05T04:38:05.194Z,99661.70
2023-03-05T04:40:34.192Z,99667.46
2023-03-05T04:43:02.828Z,99661.64
2023-03-05T04:45:31.069Z,99661.08
2023-03-05T04:47:59.214Z,99660.86
2023-03-05T04:50:27.495Z,99660.33
2023-03-05T04:52:55.501Z,99658.09
2023-03-05T04:55:23.446Z,99653.96
2023-03-05T04:57:51.398Z,99648.68
2023-03-05T05:00:19.699Z,99645.45
2023-03-05T05:02:50.169Z,99643.55
2023-03-05T05:05:21.997Z,99636.41
2023-03-05T05:07:50.545Z,99636.54
2023-03-05T05:10:18.591Z,99632.77
2023-03-05T05:12:46.462Z,99629.33
2023-03-05T05:15:14.647Z,99627.58
2023-03-05T05:17:42.576Z,99628.36
2023-03-05T05:20:12.529Z,99627.59
2023-03-05T05:22:40.650Z,99623.60
2023-03-05T05:25:10.524Z,99620.81
2023-03-05T05:27:40.086Z,99624.94
2023-03-05T05:30:09.878Z,99626.88
2023-03-05T05:32:37.897Z,99625.77
2023-03-05T05:35:06.323Z,99626.35
2023-03-05T05:46:45.268Z,99620.98
2023-03-05T05:49:13.235Z,99624.44
2023-03-05T05:51:41.419Z,99620.98
2023-03-05T05:58:47.241Z,99619.37
2023-03-05T06:01:31.020Z,99617.41
2023-03-05T06:04:00.095Z,99621.22
2023-03-05T06:11:03.204Z,99618.47
2023-03-05T06:13:31.075Z,99613.42
2023-03-05T06:16:01.038Z,99610.74
2023-03-05T06:27:37.127Z,99607.38
2023-03-05T06:30:06.751Z,99605.44
2023-03-05T06:32:34.792Z,99606.70
2023-03-05T06:35:03.274Z,99606.09
2023-03-05T06:37:31.377Z,99601.55
2023-03-05T06:39:59.340Z,99603.10
2023-03-05T06:42:27.181Z,99599.36
2023-03-05T06:44:55.053Z,99590.69
2023-03-05T06:47:22.867Z,99591.00
2023-03-05T06:49:50.849Z,99586.08
2023-03-05T06:52:18.733Z,99579.27
2023-03-05T06:54:46.566Z,99580.61
2023-03-05T06:57:14.422Z,99580.27
2023-03-05T06:59:42.238Z,99577.27
2023-03-05T07:02:12.023Z,99565.92
2023-03-05T07:04:40.563Z,99555.59
2023-03-05T07:07:08.439Z,99553.40
2023-03-05T07:09:42.816Z,99557.00
2023-03-05T07:12:11.889Z,99556.37
2023-03-05T07:14:39.787Z,99546.10
2023-03-05T07:17:08.151Z,99530.42
2023-03-05T07:19:36.153Z,99513.55
2023-03-05T07:22:04.006Z,99507.70
2023-03-05T07:24:31.850Z,99500.84
2023-03-05T07:26:59.740Z,99487.86
2023-03-05T07:29:28.471Z,99492.81
2023-03-05T07:31:56.332Z,99513.39
2023-03-05T07:34:26.806Z,99527.80
2023-03-05T07:36:54.978Z,99522.16
2023-03-05T07:39:23.317Z,99518.54
2023-03-05T07:41:51.827Z,99516.25
2023-03-05T07:44:27.148Z,99515.48
2023-03-05T07:56:06.660Z,99509.75
2023-03-05T08:03:08.997Z,99508.56
2023-03-05T08:05:39.905Z,99511.75
2023-03-05T08:08:08.692Z,99512.21
2023-03-05T08:10:37.944Z,99517.24
2023-03-05T08:13:06.314Z,99516.66
2023-03-05T08:15:34.395Z,99514.86
2023-03-05T08:18:02.366Z,99511.85
2023-03-05T08:20:30.993Z,99514.61
2023-03-05T08:22:58.987Z,99513.82
2023-03-05T08:25:26.819Z,99512.16
2023-03-05T08:27:55.123Z,99512.23
2023-03-05T08:30:27.805Z,99510.96
2023-03-05T08:32:56.220Z,99514.06
2023-03-05T08:35:24.547Z,99514.61
2023-03-05T08:37:52.468Z,99508.66
2023-03-05T08:40:20.448Z,99505.25
2023-03-05T08:42:48.492Z,99510.04
2023-03-05T08:45:16.493Z,99507.98
2023-03-05T08:47:44.333Z,99508.30
2023-03-05T08:50:12.325Z,99506.48
2023-03-05T08:52:40.322Z,99505.80
2023-03-05T08:55:08.785Z,99501.22
2023-03-05T08:57:36.660Z,99503.72
2023-03-05T09:00:05.460Z,99498.72
2023-03-05T09:02:33.542Z,99498.88
2023-03-05T09:05:01.578Z,99501.25
2023-03-05T09:07:30.022Z,99498.50
2023-03-05T09:09:57.969Z,99500.59
2023-03-05T09:12:25.920Z,99496.10
2023-03-05T09:14:57.243Z,99497.86
2023-03-05T09:17:25.335Z,99500.46
2023-03-05T09:19:53.302Z,99497.70
2023-03-05T09:22:21.320Z,99494.05
2023-03-05T09:24:49.320Z,99498.80
2023-03-05T09:27:17.359Z,99495.00
2023-03-05T09:29:45.314Z,99495.85
2023-03-05T09:32:13.284Z,99500.75
2023-03-05T09:34:41.353Z,99495.33
2023-03-05T09:37:09.348Z,99494.98
2023-03-05T09:39:37.281Z,99496.04
2023-03-05T09:42:27.149Z,99490.96
2023-03-05T09:45:18.354Z,99492.56
2023-03-05T09:47:56.976Z,99494.87
2023-03-05T09:50:50.625Z,99491.37
2023-03-05T09:53:34.315Z,99491.09
2023-03-05T09:56:10.325Z,99489.26
2023-03-05T09:58:44.146Z,99491.48
2023-03-05T10:01:35.539Z,99490.08
2023-03-05T10:04:13.849Z,99482.99
2023-03-05T10:07:08.842Z,99483.39
2023-03-05T10:09:50.601Z,99482.59
2023-03-05T10:12:42.412Z,99479.80
2023-03-05T10:15:26.980Z,99479.05
2023-03-05T10:18:36.060Z,99479.67
2023-03-05T10:21:16.786Z,99476.49
2023-03-05T10:24:03.976Z,99476.48
2023-03-05T10:26:45.156Z,99474.11
2023-03-05T10:29:32.009Z,99471.77
2023-03-05T10:32:10.553Z,99471.48
2023-03-05T10:34:57.381Z,99468.72
2023-03-05T10:38:03.682Z,99463.82
2023-03-05T10:40:41.814Z,99457.72
2023-03-05T10:43:27.506Z,99455.46
2023-03-05T10:45:58.836Z,99451.21
2023-03-05T10:48:45.826Z,99450.80
2023-03-05T10:51:19.470Z,99449.61
2023-03-05T10:53:59.847Z,99444.81
2023-03-05T10:56:31.901Z,99443.95
2023-03-05T10:58:59.998Z,99443.91
2023-03-05T11:01:29.313Z,99442.04
2023-03-05T11:04:03.729Z,99439.04
2023-03-05T11:06:39.864Z,99434.36
2023-03-05T11:09:32.910Z,99431.48
2023-03-05T11:12:12.236Z,99427.45
2023-03-05T11:15:20.220Z,99428.19
2023-03-05T11:18:07.883Z,99427.65
2023-03-05T11:20:40.865Z,99426.86
2023-03-05T11:23:25.871Z,99424.81
2023-03-05T11:26:25.331Z,99422.06
2023-03-05T11:29:00.905Z,99416.40
2023-03-05T11:31:35.234Z,99413.78
2023-03-05T11:34:23.890Z,99413.02
2023-03-05T11:37:08.898Z,99410.16
2023-03-05T11:39:40.881Z,99411.34
2023-03-05T11:42:25.931Z,99404.17
2023-03-05T11:44:57.922Z,99401.63
2023-03-05T11:47:56.798Z,99402.69
2023-03-05T11:50:32.923Z,99397.69
2023-03-05T11:53:29.898Z,99394.16
2023-03-05T11:56:28.112Z,99397.14
2023-03-05T11:59:12.976Z,99392.08
2023-03-05T12:01:50.933Z,99391.29
2023-03-05T12:04:22.936Z,99390.45
2023-03-05T12:14:37.205Z,99380.31
2023-03-05T12:17:14.086Z,99378.17
2023-03-05T12:19:53.522Z,99377.54
2023-03-05T12:22:24.256Z,99374.77
2023-03-05T12:24:53.371Z,99373.27
2023-03-05T12:27:47.849Z,99374.19
2023-03-05T12:30:34.139Z,99373.70
2023-03-05T12:33:04.611Z,99372.20
2023-03-05T12:35:40.943Z,99369.70
2023-03-05T12:38:26.705Z,99372.19
2023-03-05T12:41:20.902Z,99364.77
2023-03-05T12:44:07.318Z,99363.30
2023-03-05T12:46:40.112Z,99362.29
2023-03-05T12:49:28.531Z,99362.59
2023-03-05T12:52:01.443Z,99357.27
2023-03-05T12:54:31.535Z,99355.22
2023-03-05T12:57:17.650Z,99358.52
2023-03-05T12:59:56.351Z,99356.04
2023-03-05T13:02:43.366Z,99353.64
2023-03-05T13:05:23.364Z,99355.24
2023-03-05T13:07:51.996Z,99352.02
2023-03-05T13:10:29.458Z,99348.60
2023-03-05T13:12:58.812Z,99350.20
2023-03-05T13:15:27.206Z,99348.98
2023-03-05T13:18:08.710Z,99349.35
2023-03-05T13:20:38.672Z,99346.91
2023-03-05T13:23:26.920Z,99344.86
2023-03-05T13:25:59.698Z,99343.48
2023-03-05T13:28:28.685Z,99342.39
2023-03-05T13:31:04.038Z,99340.20
2023-03-05T13:33:35.168Z,99340.64
2023-03-05T13:36:05.178Z,99339.14
2023-03-05T13:38:40.385Z,99335.88
2023-03-05T13:41:20.298Z,99331.06
2023-03-05T13:43:53.146Z,99333.09
2023-03-05T13:46:31.708Z,99335.61
2023-03-05T13:49:19.303Z,99328.77
2023-03-05T13:51:51.438Z,99323.50
2023-03-05T13:54:20.250Z,99318.33
2023-03-05T13:56:50.980Z,99321.60
2023-03-05T13:59:22.341Z,99326.50
2023-03-05T14:01:51.738Z,99325.20
2023-03-05T14:04:23.797Z,99325.08
2023-03-05T14:06:56.984Z,99324.40
2023-03-05T14:09:31.345Z,99319.25
2023-03-05T14:12:05.347Z,99317.26
2023-03-05T14:14:38.135Z,99314.35
2023-03-05T14:17:27.385Z,99313.14
2023-03-05T14:20:13.400Z,99308.36
2023-03-05T14:22:45.481Z,99305.45
2023-03-05T14:25:38.221Z,99300.68
2023-03-05T14:28:18.748Z,99295.73
2023-03-05T14:30:49.450Z,99294.05
2023-03-05T14:33:38.295Z,99290.97
2023-03-05T14:36:08.560Z,99291.27
2023-03-05T14:38:42.987Z,99292.82
2023-03-05T14:41:41.792Z,99286.93
2023-03-05T14:44:15.995Z,99292.20
2023-03-05T14:46:49.319Z,99291.75
2023-03-05T14:49:18.055Z,99291.95
2023-03-05T14:51:47.264Z,99288.38
2023-03-05T14:54:21.091Z,99286.66
2023-03-05T14:56:49.954Z,99286.84
2023-03-05T14:59:21.141Z,99282.25
2023-03-05T15:01:51.137Z,99282.55
2023-03-05T15:04:20.163Z,99279.65
2023-03-05T15:06:51.136Z,99278.00
2023-03-05T15:09:21.259Z,99270.52
2023-03-05T15:11:49.442Z,99266.80
2023-03-05T15:14:17.515Z,99267.98
2023-03-05T15:16:46.121Z,99265.62
2023-03-05T15:19:14.159Z,99271.60
2023-03-05T15:21:42.450Z,99273.66
2023-03-05T15:24:11.494Z,99272.52
2023-03-05T15:26:40.011Z,99274.23
2023-03-05T15:29:07.948Z,99274.48
2023-03-05T15:31:38.863Z,99271.66
2023-03-05T15:34:07.297Z,99273.08
2023-03-05T15:36:35.980Z,99270.21
2023-03-05T15:39:04.154Z,99270.10
2023-03-05T15:41:32.222Z,99272.02
2023-03-05T15:44:00.247Z,99274.63
2023-03-05T15:46:28.468Z,99275.98
2023-03-05T15:48:56.752Z,99279.26
2023-03-05T15:51:25.236Z,99279.48
2023-03-05T15:53:54.573Z,99277.81
2023-03-05T15:56:23.854Z,99275.98
2023-03-05T15:58:52.626Z,99273.29
2023-03-05T16:01:21.264Z,99278.91
2023-03-05T16:03:51.256Z,99280.81
2023-03-05T16:06:23.618Z,99282.85
2023-03-05T16:08:56.201Z,99283.54
2023-03-05T16:11:24.751Z,99281.36
2023-03-05T16:13:52.823Z,99284.10
2023-03-05T16:16:23.767Z,99288.88
2023-03-05T16:18:53.618Z,99288.55
2023-03-05T16:21:21.743Z,99289.42
2023-03-05T16:23:50.152Z,99295.90
2023-03-05T16:26:19.013Z,99299.99
2023-03-05T16:28:46.966Z,99299.16
2023-03-05T16:31:14.881Z,99303.27
2023-03-05T16:33:42.922Z,99302.42
2023-03-05T16:36:11.532Z,99300.58
2023-03-05T16:38:39.574Z,99303.98
2023-03-05T16:41:08.869Z,99306.36
2023-03-05T16:43:37.070Z,99309.26
2023-03-05T16:46:05.439Z,99310.13
2023-03-05T16:48:33.404Z,99314.71
2023-03-05T16:51:01.384Z,99314.70
2023-03-05T16:53:29.739Z,99316.76
2023-03-05T16:55:57.754Z,99318.28
2023-03-05T16:58:25.886Z,99323.05
2023-03-05T17:00:54.102Z,99323.38
2023-03-05T17:03:22.840Z,99327.80
2023-03-05T17:05:51.021Z,99330.52
2023-03-05T17:08:19.189Z,99327.30
2023-03-05T17:10:47.259Z,99329.85
2023-03-05T17:13:15.332Z,99335.95
2023-03-05T17:18:16.286Z,99341.73
2023-03-05T17:20:44.287Z,99346.81
2023-03-05T17:23:12.342Z,99346.48
2023-03-05T17:25:40.292Z,99343.77
2023-03-05T17:28:08.302Z,99343.26
2023-03-05T17:30:37.357Z,99342.23
2023-03-05T17:33:05.837Z,99343.25
2023-03-05T17:35:35.537Z,99341.21
2023-03-05T17:38:05.467Z,99337.30
2023-03-05T17:40:34.558Z,99332.89
2023-03-05T17:43:04.109Z,99336.11
2023-03-05T17:45:32.825Z,99335.60
2023-03-05T17:48:01.429Z,99335.92
2023-03-05T17:50:29.706Z,99333.04
2023-03-05T17:52:57.918Z,99334.21
2023-03-05T17:55:25.958Z,99330.98
2023-03-05T17:57:54.229Z,99329.98
2023-03-05T18:00:24.736Z,99330.30
2023-03-05T18:02:53.955Z,99328.27
2023-03-05T18:05:24.310Z,99328.77
2023-03-05T18:07:52.968Z,99329.58
2023-03-05T18:10:22.778Z,99327.86
2023-03-05T18:12:51.080Z,99331.89
2023-03-05T18:15:21.404Z,99329.48
2023-03-05T18:17:49.432Z,99329.11
2023-03-05T18:20:28.184Z,99330.27
2023-03-05T18:22:58.023Z,99332.42
2023-03-05T18:25:31.342Z,99330.70
2023-03-05T18:28:11.648Z,99334.06
2023-03-05T18:30:41.136Z,99334.38
2023-03-05T18:33:19.903Z,99335.21
2023-03-05T18:35:52.076Z,99337.73
2023-03-05T18:38:25.278Z,99335.69
2023-03-05T18:40:55.354Z,99336.02
2023-03-05T18:43:24.670Z,99335.16
2023-03-05T18:45:55.378Z,99331.95
2023-03-05T18:48:23.523Z,99333.63
2023-03-05T18:50:53.989Z,99332.23
2023-03-05T18:53:24.703Z,99331.04
2023-03-05T18:55:53.513Z,99332.36
2023-03-05T18:58:22.735Z,99335.72
2023-03-05T19:00:52.091Z,99335.17
2023-03-05T19:03:21.873Z,99335.46
2023-03-05T19:05:51.455Z,99332.05
2023-03-05T19:08:20.598Z,99335.90
2023-03-05T19:10:48.589Z,99334.48
2023-03-05T19:13:37.019Z,99337.66
2023-03-05T19:16:30.388Z,99339.45
2023-03-05T19:19:13.871Z,99339.06
2023-03-05T19:21:48.301Z,99337.70
2023-03-05T19:24:17.437Z,99334.27
2023-03-05T19:26:46.334Z,99334.94
2023-03-05T19:29:15.621Z,99336.45
2023-03-05T19:31:43.613Z,99337.12
2023-03-05T19:34:12.176Z,99336.95
2023-03-05T19:36:40.146Z,99338.13
2023-03-05T19:39:08.534Z,99338.81
2023-03-05T19:41:37.204Z,99334.71
2023-03-05T19:44:06.208Z,99336.73
2023-03-05T19:46:34.348Z,99338.24
2023-03-05T19:49:02.435Z,99336.34
2023-03-05T19:51:30.752Z,99340.52
2023-03-05T19:53:58.784Z,99343.17
2023-03-05T19:56:27.075Z,99345.33
2023-03-05T19:58:55.142Z,99345.13
2023-03-05T20:01:27.865Z,99346.45
2023-03-05T20:03:58.747Z,99344.39
2023-03-05T20:06:28.106Z,99348.23
2023-03-05T20:08:57.447Z,99348.38
2023-03-05T20:11:26.896Z,99348.67
2023-03-05T20:13:57.221Z,99347.16
2023-03-05T20:16:29.844Z,99346.30
2023-03-05T20:18:59.574Z,99346.64
2023-03-05T20:21:30.839Z,99344.96
2023-03-05T20:24:02.397Z,99337.87
2023-03-05T20:26:31.258Z,99334.85
2023-03-05T20:28:59.528Z,99338.40
2023-03-05T20:31:28.374Z,99335.36
2023-03-05T20:33:57.033Z,99339.90
2023-03-05T20:36:25.129Z,99342.58
2023-03-05T20:38:53.249Z,99343.89
2023-03-05T20:41:22.035Z,99340.13
2023-03-05T20:43:51.745Z,99342.30
2023-03-05T20:46:26.330Z,99347.15
2023-03-05T20:48:57.769Z,99344.55
2023-03-05T20:51:38.026Z,99340.13
2023-03-05T20:54:09.069Z,99341.25
2023-03-05T20:56:38.112Z,99343.21
2023-03-05T20:59:09.042Z,99345.20
2023-03-05T21:01:40.211Z,99340.39
2023-03-05T21:04:09.264Z,99338.65
2023-03-05T21:06:37.463Z,99340.32
2023-03-05T21:09:05.861Z,99338.27
2023-03-05T21:11:35.962Z,99338.74
2023-03-05T21:14:04.151Z,99335.36
2023-03-05T21:16:32.510Z,99334.85
2023-03-05T21:19:00.889Z,99329.48
2023-03-05T21:29:03.566Z,99325.14
2023-03-05T21:31:31.642Z,99327.17
2023-03-05T21:34:00.145Z,99329.05
2023-03-05T21:36:28.186Z,99324.49
2023-03-05T21:38:56.153Z,99321.23
2023-03-05T21:41:26.228Z,99321.22
2023-03-05T21:43:54.299Z,99323.87
2023-03-05T21:46:22.369Z,99320.28
2023-03-05T21:48:50.567Z,99316.50
2023-03-05T21:51:18.649Z,99315.90
2023-03-05T21:53:46.690Z,99311.95
2023-03-05T21:56:23.572Z,99311.41
2023-03-05T21:58:52.657Z,99308.80
2023-03-05T22:01:21.591Z,99307.75
2023-03-05T22:03:50.521Z,99305.81
2023-03-05T22:06:20.276Z,99312.31
2023-03-05T22:08:48.838Z,99314.77
2023-03-05T22:11:19.580Z,99314.67
2023-03-05T22:13:47.657Z,99316.15
2023-03-05T22:16:23.727Z,99314.90
2023-03-05T22:18:52.787Z,99317.09
2023-03-05T22:21:23.949Z,99318.27
2023-03-05T22:23:53.632Z,99318.95
2023-03-05T22:26:22.112Z,99319.95
2023-03-05T22:28:50.616Z,99318.13
2023-03-05T22:31:24.147Z,99317.48
2023-03-05T22:33:52.574Z,99317.14
2023-03-05T22:36:21.051Z,99316.46
2023-03-05T22:38:49.534Z,99316.46
2023-03-05T22:41:19.965Z,99316.96
2023-03-05T22:43:49.573Z,99317.42
2023-03-05T22:46:21.750Z,99315.34
2023-03-05T22:48:50.620Z,99320.03
2023-03-05T22:51:19.758Z,99320.98
2023-03-05T22:53:47.786Z,99317.30
2023-03-05T22:56:19.161Z,99314.44
2023-03-05T22:58:47.920Z,99322.42
2023-03-05T23:01:24.636Z,99321.86
2023-03-05T23:04:03.614Z,99319.77
2023-03-05T23:06:31.806Z,99316.84
2023-03-05T23:09:00.389Z,99314.05
2023-03-05T23:11:28.386Z,99312.31
2023-03-05T23:13:56.533Z,99308.05
2023-03-05T23:16:24.502Z,99305.62
2023-03-05T23:18:52.472Z,99307.64
2023-03-05T23:21:20.778Z,99309.12
2023-03-05T23:23:48.816Z,99309.73
2023-03-05T23:26:16.916Z,99310.53
2023-03-05T23:28:44.864Z,99307.77
2023-03-05T23:31:13.191Z,99305.69
2023-03-05T23:33:41.426Z,99307.78
2023-03-05T23:36:10.503Z,99304.27
2023-03-05T23:38:38.509Z,99305.02
2023-03-05T23:41:09.615Z,99306.58
2023-03-05T23:43:37.584Z,99304.25
2023-03-05T23:46:11.413Z,99306.28
2023-03-05T23:48:40.967Z,99302.90
2023-03-05T23:51:10.910Z,99303.54
2023-03-05T23:53:38.980Z,99303.80
2023-03-05T23:56:11.635Z,99303.73
2023-03-05T23:58:40.141Z,99302.35
